sensor_id;sensor_type;location;lat;lon;timestamp;pressure;altitude;pressure_sealevel;temperature;humidity
7180;BME280;3631;42.152;24.756;2023-03-29T00:00:57;99743.28;;;4.78;56.40
7180;BME280;3631;42.152;24.756;2023-03-29T00:04:01;99747.56;;;4.74;56.13
7180;BME280;3631;42.152;24.756;2023-03-29T00:07:08;99738.97;;;4.74;56.84
7180;BME280;3631;42.152;24.756;2023-03-29T00:10:06;99745.00;;;4.71;56.75
7180;BME280;3631;42.152;24.756;2023-03-29T00:13:08;99747.56;;;4.68;56.86
7180;BME280;3631;42.152;24.756;2023-03-29T00:16:12;99751.00;;;4.70;56.99
7180;BME280;3631;42.152;24.756;2023-03-29T00:19:09;99755.28;;;4.64;56.87
7180;BME280;3631;42.152;24.756;2023-03-29T00:22:15;99756.13;;;4.64;57.19
7180;BME280;3631;42.152;24.756;2023-03-29T00:25:12;99748.44;;;4.52;57.36
7180;BME280;3631;42.152;24.756;2023-03-29T00:28:10;99765.59;;;4.56;57.20
7180;BME280;3631;42.152;24.756;2023-03-29T00:31:45;99763.00;;;4.52;57.43
7180;BME280;3631;42.152;24.756;2023-03-29T00:34:44;99772.44;;;4.45;57.73
7180;BME280;3631;42.152;24.756;2023-03-29T00:37:32;99772.44;;;4.42;57.38
7180;BME280;3631;42.152;24.756;2023-03-29T00:40:26;99774.16;;;4.42;57.53
7180;BME280;3631;42.152;24.756;2023-03-29T00:43:16;99775.03;;;4.51;57.71
7180;BME280;3631;42.152;24.756;2023-03-29T00:49:45;99778.44;;;4.41;57.94
7180;BME280;3631;42.152;24.756;2023-03-29T00:52:34;99779.31;;;4.38;58.42
7180;BME280;3631;42.152;24.756;2023-03-29T00:55:13;99795.59;;;4.51;57.79
7180;BME280;3631;42.152;24.756;2023-03-29T00:58:31;99796.44;;;4.56;57.46
7180;BME280;3631;42.152;24.756;2023-03-29T01:01:49;99793.00;;;4.59;57.79
7180;BME280;3631;42.152;24.756;2023-03-29T01:08:11;99804.97;;;4.63;57.15
7180;BME280;3631;42.152;24.756;2023-03-29T01:11:10;99799.00;;;4.59;57.26
7180;BME280;3631;42.152;24.756;2023-03-29T01:14:05;99810.13;;;4.57;56.96
7180;BME280;3631;42.152;24.756;2023-03-29T01:17:25;99808.41;;;4.56;56.80
7180;BME280;3631;42.152;24.756;2023-03-29T01:20:28;99803.28;;;4.42;57.43
7180;BME280;3631;42.152;24.756;2023-03-29T01:27:10;99801.56;;;4.33;57.45
7180;BME280;3631;42.152;24.756;2023-03-29T01:30:29;99801.56;;;4.36;57.50
7180;BME280;3631;42.152;24.756;2023-03-29T01:33:32;99798.13;;;4.30;57.77
7180;BME280;3631;42.152;24.756;2023-03-29T01:36:41;99799.84;;;4.28;57.55
7180;BME280;3631;42.152;24.756;2023-03-29T01:39:32;99794.72;;;4.35;57.76
7180;BME280;3631;42.152;24.756;2023-03-29T01:42:44;99805.00;;;4.26;57.71
7180;BME280;3631;42.152;24.756;2023-03-29T01:45:54;99794.69;;;4.14;57.61
7180;BME280;3631;42.152;24.756;2023-03-29T01:49:10;99792.94;;;4.07;58.01
7180;BME280;3631;42.152;24.756;2023-03-29T01:52:07;99794.66;;;4.07;57.93
7180;BME280;3631;42.152;24.756;2023-03-29T01:55:13;99789.53;;;4.05;57.50
7180;BME280;3631;42.152;24.756;2023-03-29T01:58:20;99798.06;;;3.98;57.04
7180;BME280;3631;42.152;24.756;2023-03-29T02:01:25;99812.63;;;4.00;57.54
7180;BME280;3631;42.152;24.756;2023-03-29T02:04:27;99822.09;;;4.06;56.50
7180;BME280;3631;42.152;24.756;2023-03-29T02:07:36;99806.66;;;4.03;56.03
7180;BME280;3631;42.152;24.756;2023-03-29T02:10:33;99816.06;;;4.09;55.87
7180;BME280;3631;42.152;24.756;2023-03-29T02:13:43;99818.66;;;4.10;55.86
7180;BME280;3631;42.152;24.756;2023-03-29T02:16:52;99830.63;;;4.08;55.84
7180;BME280;3631;42.152;24.756;2023-03-29T02:19:50;99830.59;;;3.96;57.20
7180;BME280;3631;42.152;24.756;2023-03-29T02:22:55;99825.41;;;3.84;57.55
7180;BME280;3631;42.152;24.756;2023-03-29T02:25:33;99840.84;;;3.85;58.25
7180;BME280;3631;42.152;24.756;2023-03-29T02:28:27;99848.53;;;3.85;57.76
7180;BME280;3631;42.152;24.756;2023-03-29T02:31:26;99852.81;;;3.88;57.94
7180;BME280;3631;42.152;24.756;2023-03-29T02:34:40;99858.00;;;3.94;57.55
7180;BME280;3631;42.152;24.756;2023-03-29T02:37:51;99862.28;;;3.95;57.04
7180;BME280;3631;42.152;24.756;2023-03-29T02:40:50;99874.28;;;3.94;56.92
7180;BME280;3631;42.152;24.756;2023-03-29T02:43:45;99859.72;;;3.95;56.32
7180;BME280;3631;42.152;24.756;2023-03-29T02:46:46;99860.56;;;3.91;56.72
7180;BME280;3631;42.152;24.756;2023-03-29T02:50:01;99865.72;;;4.00;55.68
7180;BME280;3631;42.152;24.756;2023-03-29T02:52:43;99863.16;;;4.00;55.22
7180;BME280;3631;42.152;24.756;2023-03-29T02:55:44;99867.41;;;3.93;55.47
7180;BME280;3631;42.152;24.756;2023-03-29T03:01:41;99871.69;;;3.93;55.34
7180;BME280;3631;42.152;24.756;2023-03-29T03:04:40;99869.94;;;3.89;55.21
7180;BME280;3631;42.152;24.756;2023-03-29T03:07:26;99869.09;;;3.87;54.72
7180;BME280;3631;42.152;24.756;2023-03-29T03:10:01;99876.78;;;3.81;55.42
7180;BME280;3631;42.152;24.756;2023-03-29T03:12:42;99873.31;;;3.76;55.31
7180;BME280;3631;42.152;24.756;2023-03-29T03:15:24;99879.31;;;3.76;55.87
7180;BME280;3631;42.152;24.756;2023-03-29T03:18:01;99879.31;;;3.75;55.64
7180;BME280;3631;42.152;24.756;2023-03-29T03:20:38;99879.31;;;3.72;55.56
7180;BME280;3631;42.152;24.756;2023-03-29T03:23:18;99880.97;;;3.63;55.92
7180;BME280;3631;42.152;24.756;2023-03-29T03:25:51;99888.69;;;3.67;56.18
7180;BME280;3631;42.152;24.756;2023-03-29T03:28:30;99892.13;;;3.69;55.53
7180;BME280;3631;42.152;24.756;2023-03-29T03:31:18;99892.09;;;3.61;56.35
7180;BME280;3631;42.152;24.756;2023-03-29T03:34:02;99903.22;;;3.66;55.77
7180;BME280;3631;42.152;24.756;2023-03-29T03:36:42;99898.94;;;3.63;55.73
7180;BME280;3631;42.152;24.756;2023-03-29T03:39:26;99897.22;;;3.65;55.56
7180;BME280;3631;42.152;24.756;2023-03-29T03:42:11;99910.97;;;3.71;55.27
7180;BME280;3631;42.152;24.756;2023-03-29T03:44:53;99909.25;;;3.73;55.92
7180;BME280;3631;42.152;24.756;2023-03-29T03:47:31;99912.72;;;3.81;55.36
7180;BME280;3631;42.152;24.756;2023-03-29T03:50:07;99913.53;;;3.77;55.55
7180;BME280;3631;42.152;24.756;2023-03-29T03:52:50;99914.38;;;3.74;55.11
7180;BME280;3631;42.152;24.756;2023-03-29T03:55:46;99907.53;;;3.75;55.06
7180;BME280;3631;42.152;24.756;2023-03-29T03:58:21;99903.28;;;3.72;55.29
7180;BME280;3631;42.152;24.756;2023-03-29T04:01:20;99922.94;;;3.73;55.23
7180;BME280;3631;42.152;24.756;2023-03-29T04:04:16;99926.34;;;3.66;54.78
7180;BME280;3631;42.152;24.756;2023-03-29T04:06:57;99923.78;;;3.68;54.47
7180;BME280;3631;42.152;24.756;2023-03-29T04:09:48;99928.09;;;3.72;55.24
7180;BME280;3631;42.152;24.756;2023-03-29T04:12:42;99916.94;;;3.68;55.20
7180;BME280;3631;42.152;24.756;2023-03-29T04:15:40;99939.19;;;3.68;55.73
7180;BME280;3631;42.152;24.756;2023-03-29T04:18:21;99935.75;;;3.65;55.44
7180;BME280;3631;42.152;24.756;2023-03-29T04:21:25;99939.13;;;3.61;55.79
7180;BME280;3631;42.152;24.756;2023-03-29T04:24:28;99937.44;;;3.63;56.38
7180;BME280;3631;42.152;24.756;2023-03-29T04:30:48;99947.81;;;3.85;59.85
7180;BME280;3631;42.152;24.756;2023-03-29T04:33:34;99941.84;;;3.89;56.57
7180;BME280;3631;42.152;24.756;2023-03-29T04:36:08;99942.75;;;3.98;55.86
7180;BME280;3631;42.152;24.756;2023-03-29T04:38:46;99955.66;;;4.12;55.18
7180;BME280;3631;42.152;24.756;2023-03-29T04:41:30;99953.06;;;4.11;55.41
7180;BME280;3631;42.152;24.756;2023-03-29T04:44:11;99958.19;;;4.08;55.29
7180;BME280;3631;42.152;24.756;2023-03-29T04:46:54;99953.03;;;4.00;54.95
7180;BME280;3631;42.152;24.756;2023-03-29T04:49:35;99963.34;;;4.06;55.08
7180;BME280;3631;42.152;24.756;2023-03-29T04:52:07;99956.44;;;3.99;55.08
7180;BME280;3631;42.152;24.756;2023-03-29T04:54:46;99965.91;;;4.05;54.83
7180;BME280;3631;42.152;24.756;2023-03-29T04:57:30;99959.06;;;4.08;55.04
7180;BME280;3631;42.152;24.756;2023-03-29T04:59:59;99964.19;;;4.08;54.75
7180;BME280;3631;42.152;24.756;2023-03-29T05:02:40;99966.81;;;4.19;54.62
7180;BME280;3631;42.152;24.756;2023-03-29T05:05:25;99977.13;;;4.29;53.88
7180;BME280;3631;42.152;24.756;2023-03-29T05:08:28;99972.91;;;4.44;54.01
7180;BME280;3631;42.152;24.756;2023-03-29T05:11:40;99966.94;;;4.55;53.32
7180;BME280;3631;42.152;24.756;2023-03-29T05:14:29;99970.44;;;4.91;52.85
7180;BME280;3631;42.152;24.756;2023-03-29T05:20:49;99972.88;;;7.53;47.17
7180;BME280;3631;42.152;24.756;2023-03-29T05:23:52;99976.41;;;9.46;42.80
7180;BME280;3631;42.152;24.756;2023-03-29T05:30:12;99990.47;;;12.71;36.38
7180;BME280;3631;42.152;24.756;2023-03-29T05:33:19;99994.31;;;13.43;34.61
7180;BME280;3631;42.152;24.756;2023-03-29T05:36:24;99990.44;;;14.29;33.57
7180;BME280;3631;42.152;24.756;2023-03-29T05:39:20;100001.91;;;14.95;32.33
7180;BME280;3631;42.152;24.756;2023-03-29T05:42:13;100010.88;;;15.55;31.68
7180;BME280;3631;42.152;24.756;2023-03-29T05:45:11;100004.53;;;16.01;30.62
7180;BME280;3631;42.152;24.756;2023-03-29T05:48:07;100009.28;;;15.91;30.30
7180;BME280;3631;42.152;24.756;2023-03-29T05:51:04;100010.53;;;15.41;30.33
7180;BME280;3631;42.152;24.756;2023-03-29T05:57:30;100016.84;;;16.38;29.46
7180;BME280;3631;42.152;24.756;2023-03-29T06:00:08;100017.00;;;16.74;28.95
7180;BME280;3631;42.152;24.756;2023-03-29T06:03:15;100020.75;;;17.42;28.46
7180;BME280;3631;42.152;24.756;2023-03-29T06:06:10;100018.47;;;18.22;27.39
7180;BME280;3631;42.152;24.756;2023-03-29T06:09:03;100015.94;;;18.03;27.12
7180;BME280;3631;42.152;24.756;2023-03-29T06:12:17;100021.97;;;17.88;26.70
7180;BME280;3631;42.152;24.756;2023-03-29T06:15:13;100027.50;;;18.34;25.60
7180;BME280;3631;42.152;24.756;2023-03-29T06:18:16;100040.47;;;18.20;25.64
7180;BME280;3631;42.152;24.756;2023-03-29T06:21:34;100030.59;;;18.25;25.51
7180;BME280;3631;42.152;24.756;2023-03-29T06:24:32;100025.13;;;18.62;24.96
7180;BME280;3631;42.152;24.756;2023-03-29T06:33:48;100050.69;;;19.23;23.43
7180;BME280;3631;42.152;24.756;2023-03-29T06:36:33;100054.09;;;19.56;23.32
7180;BME280;3631;42.152;24.756;2023-03-29T06:39:25;100051.59;;;19.99;22.60
7180;BME280;3631;42.152;24.756;2023-03-29T06:42:13;100050.84;;;20.55;22.70
7180;BME280;3631;42.152;24.756;2023-03-29T06:45:08;100055.38;;;21.37;21.68
7180;BME280;3631;42.152;24.756;2023-03-29T06:47:52;100063.09;;;20.56;21.63
7180;BME280;3631;42.152;24.756;2023-03-29T06:50:41;100059.81;;;20.67;21.56
7180;BME280;3631;42.152;24.756;2023-03-29T06:53:42;100062.25;;;20.98;21.75
7180;BME280;3631;42.152;24.756;2023-03-29T06:56:31;100060.72;;;21.09;21.32
7180;BME280;3631;42.152;24.756;2023-03-29T06:59:07;100072.91;;;20.97;21.25
7180;BME280;3631;42.152;24.756;2023-03-29T07:01:41;100068.38;;;20.99;21.16
7180;BME280;3631;42.152;24.756;2023-03-29T07:04:14;100066.13;;;21.88;20.70
7180;BME280;3631;42.152;24.756;2023-03-29T07:06:59;100058.31;;;21.86;20.60
7180;BME280;3631;42.152;24.756;2023-03-29T07:13:05;100074.78;;;20.95;20.99
7180;BME280;3631;42.152;24.756;2023-03-29T07:15:48;100066.34;;;21.31;20.52
7180;BME280;3631;42.152;24.756;2023-03-29T07:18:26;100073.81;;;22.05;20.23
7180;BME280;3631;42.152;24.756;2023-03-29T07:21:10;100075.44;;;22.45;19.68
7180;BME280;3631;42.152;24.756;2023-03-29T07:23:45;100080.31;;;22.77;19.26
7180;BME280;3631;42.152;24.756;2023-03-29T07:26:28;100071.09;;;21.53;19.46
7180;BME280;3631;42.152;24.756;2023-03-29T07:29:19;100072.97;;;21.78;19.29
7180;BME280;3631;42.152;24.756;2023-03-29T07:32:12;100075.44;;;22.45;18.58
7180;BME280;3631;42.152;24.756;2023-03-29T07:35:09;100069.81;;;22.88;18.39
7180;BME280;3631;42.152;24.756;2023-03-29T07:38:08;100080.19;;;22.66;18.72
7180;BME280;3631;42.152;24.756;2023-03-29T07:41:05;100056.06;;;22.45;17.45
7180;BME280;3631;42.152;24.756;2023-03-29T07:43:37;100050.63;;;22.97;17.16
7180;BME280;3631;42.152;24.756;2023-03-29T07:46:16;100071.13;;;23.19;17.11
7180;BME280;3631;42.152;24.756;2023-03-29T07:48:55;100055.56;;;22.78;17.21
7180;BME280;3631;42.152;24.756;2023-03-29T07:51:35;100056.72;;;22.23;17.39
7180;BME280;3631;42.152;24.756;2023-03-29T07:54:22;100066.00;;;22.41;17.32
7180;BME280;3631;42.152;24.756;2023-03-29T07:57:15;100060.94;;;22.89;16.67
7180;BME280;3631;42.152;24.756;2023-03-29T08:00:11;100053.44;;;21.93;17.22
7180;BME280;3631;42.152;24.756;2023-03-29T08:03:10;100059.75;;;22.17;17.34
7180;BME280;3631;42.152;24.756;2023-03-29T08:06:06;100044.41;;;22.35;17.19
7180;BME280;3631;42.152;24.756;2023-03-29T08:09:10;100054.50;;;22.42;17.07
7180;BME280;3631;42.152;24.756;2023-03-29T08:12:05;100058.72;;;21.93;17.01
7180;BME280;3631;42.152;24.756;2023-03-29T08:15:10;100050.16;;;21.77;17.55
7180;BME280;3631;42.152;24.756;2023-03-29T08:18:04;100039.25;;;21.42;18.03
7180;BME280;3631;42.152;24.756;2023-03-29T08:21:03;100035.78;;;20.57;18.60
7180;BME280;3631;42.152;24.756;2023-03-29T08:23:59;100045.22;;;20.03;19.08
7180;BME280;3631;42.152;24.756;2023-03-29T08:26:37;100052.03;;;19.30;19.67
7180;BME280;3631;42.152;24.756;2023-03-29T08:29:30;100036.66;;;17.03;21.08
7180;BME280;3631;42.152;24.756;2023-03-29T08:32:32;100034.94;;;15.41;23.30
7180;BME280;3631;42.152;24.756;2023-03-29T08:35:15;100038.88;;;14.13;24.16
7180;BME280;3631;42.152;24.756;2023-03-29T08:38:15;100038.09;;;13.32;24.69
7180;BME280;3631;42.152;24.756;2023-03-29T08:41:20;100036.59;;;13.25;24.41
7180;BME280;3631;42.152;24.756;2023-03-29T08:44:27;100018.72;;;12.85;25.13
7180;BME280;3631;42.152;24.756;2023-03-29T08:47:34;100029.66;;;12.96;25.54
7180;BME280;3631;42.152;24.756;2023-03-29T08:50:27;100016.72;;;12.34;26.27
7180;BME280;3631;42.152;24.756;2023-03-29T08:53:40;100031.53;;;12.91;26.58
7180;BME280;3631;42.152;24.756;2023-03-29T08:56:57;100037.81;;;12.23;25.95
7180;BME280;3631;42.152;24.756;2023-03-29T08:59:50;100012.22;;;11.74;27.55
7180;BME280;3631;42.152;24.756;2023-03-29T09:02:46;100036.09;;;11.91;27.92
7180;BME280;3631;42.152;24.756;2023-03-29T09:06:00;100026.34;;;12.30;28.27
7180;BME280;3631;42.152;24.756;2023-03-29T09:09:04;100038.97;;;12.44;27.84
7180;BME280;3631;42.152;24.756;2023-03-29T09:12:15;100031.59;;;11.96;28.08
7180;BME280;3631;42.152;24.756;2023-03-29T09:15:35;100028.38;;;11.51;28.22
7180;BME280;3631;42.152;24.756;2023-03-29T09:19:01;100031.22;;;11.42;28.41
7180;BME280;3631;42.152;24.756;2023-03-29T09:22:11;100027.63;;;11.83;28.10
7180;BME280;3631;42.152;24.756;2023-03-29T09:25:35;100033.56;;;11.88;27.37
7180;BME280;3631;42.152;24.756;2023-03-29T09:28:42;100029.97;;;11.58;26.24
7180;BME280;3631;42.152;24.756;2023-03-29T09:31:46;100031.38;;;11.72;26.70
7180;BME280;3631;42.152;24.756;2023-03-29T09:34:43;100019.72;;;12.51;26.04
7180;BME280;3631;42.152;24.756;2023-03-29T09:37:31;100022.00;;;12.62;26.29
7180;BME280;3631;42.152;24.756;2023-03-29T09:40:21;100022.53;;;12.73;26.48
7180;BME280;3631;42.152;24.756;2023-03-29T09:43:00;100009.56;;;12.99;25.53
7180;BME280;3631;42.152;24.756;2023-03-29T09:45:38;100018.63;;;12.58;25.81
7180;BME280;3631;42.152;24.756;2023-03-29T09:48:43;100008.00;;;12.04;25.22
7180;BME280;3631;42.152;24.756;2023-03-29T09:51:50;100008.38;;;12.21;25.52
7180;BME280;3631;42.152;24.756;2023-03-29T09:54:34;100016.84;;;12.29;25.78
7180;BME280;3631;42.152;24.756;2023-03-29T09:57:18;100008.41;;;12.20;26.01
7180;BME280;3631;42.152;24.756;2023-03-29T09:59:58;100011.22;;;12.14;26.01
7180;BME280;3631;42.152;24.756;2023-03-29T10:02:33;99991.97;;;11.87;26.12
7180;BME280;3631;42.152;24.756;2023-03-29T10:05:19;100016.41;;;12.14;25.54
7180;BME280;3631;42.152;24.756;2023-03-29T10:08:16;99990.03;;;11.95;25.63
7180;BME280;3631;42.152;24.756;2023-03-29T10:11:13;99992.25;;;12.09;26.36
7180;BME280;3631;42.152;24.756;2023-03-29T10:14:30;99975.22;;;12.29;25.91
7180;BME280;3631;42.152;24.756;2023-03-29T10:17:26;99980.66;;;12.20;26.32
7180;BME280;3631;42.152;24.756;2023-03-29T10:20:38;99988.03;;;12.05;26.23
7180;BME280;3631;42.152;24.756;2023-03-29T10:23:37;99970.19;;;11.91;26.38
7180;BME280;3631;42.152;24.756;2023-03-29T10:26:32;99956.84;;;12.34;26.37
7180;BME280;3631;42.152;24.756;2023-03-29T10:29:33;99958.84;;;12.54;26.02
7180;BME280;3631;42.152;24.756;2023-03-29T10:32:29;99976.94;;;12.58;25.53
7180;BME280;3631;42.152;24.756;2023-03-29T10:35:36;99944.84;;;12.30;26.08
7180;BME280;3631;42.152;24.756;2023-03-29T10:38:32;99916.31;;;12.25;26.29
7180;BME280;3631;42.152;24.756;2023-03-29T10:41:17;99952.09;;;12.19;26.31
7180;BME280;3631;42.152;24.756;2023-03-29T10:44:39;99944.47;;;12.11;26.37
7180;BME280;3631;42.152;24.756;2023-03-29T10:47:22;99940.81;;;12.18;26.66
7180;BME280;3631;42.152;24.756;2023-03-29T10:50:05;99936.25;;;12.26;26.09
7180;BME280;3631;42.152;24.756;2023-03-29T10:52:39;99932.41;;;12.09;23.33
7180;BME280;3631;42.152;24.756;2023-03-29T10:55:41;99940.63;;;12.24;24.41
7180;BME280;3631;42.152;24.756;2023-03-29T10:58:45;99928.44;;;12.26;25.19
7180;BME280;3631;42.152;24.756;2023-03-29T11:04:49;99910.22;;;12.26;25.24
7180;BME280;3631;42.152;24.756;2023-03-29T11:07:49;99912.63;;;12.32;25.35
7180;BME280;3631;42.152;24.756;2023-03-29T11:10:57;99891.38;;;12.18;24.92
7180;BME280;3631;42.152;24.756;2023-03-29T11:13:44;99912.81;;;12.26;23.68
7180;BME280;3631;42.152;24.756;2023-03-29T11:16:36;99894.00;;;12.18;23.28
7180;BME280;3631;42.152;24.756;2023-03-29T11:19:38;99886.34;;;12.12;24.10
7180;BME280;3631;42.152;24.756;2023-03-29T11:22:28;99876.81;;;12.11;24.37
7180;BME280;3631;42.152;24.756;2023-03-29T11:25:22;99878.84;;;12.31;24.99
7180;BME280;3631;42.152;24.756;2023-03-29T11:28:07;99881.91;;;12.44;25.24
7180;BME280;3631;42.152;24.756;2023-03-29T11:31:03;99854.19;;;12.43;25.52
7180;BME280;3631;42.152;24.756;2023-03-29T11:33:56;99869.53;;;12.52;25.02
7180;BME280;3631;42.152;24.756;2023-03-29T11:36:44;99858.19;;;12.53;24.27
7180;BME280;3631;42.152;24.756;2023-03-29T11:39:44;99873.66;;;12.59;23.88
7180;BME280;3631;42.152;24.756;2023-03-29T11:42:29;99857.31;;;12.54;24.00
7180;BME280;3631;42.152;24.756;2023-03-29T11:45:20;99874.31;;;12.38;23.76
7180;BME280;3631;42.152;24.756;2023-03-29T11:48:05;99866.84;;;12.27;23.72
7180;BME280;3631;42.152;24.756;2023-03-29T11:50:43;99862.47;;;12.27;24.15
7180;BME280;3631;42.152;24.756;2023-03-29T11:53:34;99848.94;;;12.16;24.19
7180;BME280;3631;42.152;24.756;2023-03-29T11:56:23;99855.94;;;12.14;24.29
7180;BME280;3631;42.152;24.756;2023-03-29T11:59:10;99831.78;;;12.09;23.94
7180;BME280;3631;42.152;24.756;2023-03-29T12:02:09;99839.53;;;12.11;24.26
7180;BME280;3631;42.152;24.756;2023-03-29T12:05:01;99834.81;;;12.23;24.13
7180;BME280;3631;42.152;24.756;2023-03-29T12:07:53;99825.84;;;12.33;23.79
7180;BME280;3631;42.152;24.756;2023-03-29T12:10:35;99809.84;;;12.46;23.90
7180;BME280;3631;42.152;24.756;2023-03-29T12:13:26;99820.66;;;12.60;23.66
7180;BME280;3631;42.152;24.756;2023-03-29T12:16:21;99807.09;;;12.50;24.08
7180;BME280;3631;42.152;24.756;2023-03-29T12:19:25;99818.03;;;12.61;24.12
7180;BME280;3631;42.152;24.756;2023-03-29T12:22:02;99819.91;;;12.56;23.81
7180;BME280;3631;42.152;24.756;2023-03-29T12:24:52;99812.19;;;12.53;23.55
7180;BME280;3631;42.152;24.756;2023-03-29T12:27:44;99809.06;;;12.42;23.22
7180;BME280;3631;42.152;24.756;2023-03-29T12:30:40;99803.00;;;12.42;23.82
7180;BME280;3631;42.152;24.756;2023-03-29T12:34:00;99809.94;;;12.43;23.95
7180;BME280;3631;42.152;24.756;2023-03-29T12:37:06;99812.66;;;12.40;23.84
7180;BME280;3631;42.152;24.756;2023-03-29T12:39:52;99808.50;;;12.32;23.51
7180;BME280;3631;42.152;24.756;2023-03-29T12:42:53;99796.50;;;12.28;23.94
7180;BME280;3631;42.152;24.756;2023-03-29T12:45:43;99793.97;;;12.27;24.27
7180;BME280;3631;42.152;24.756;2023-03-29T12:48:24;99807.06;;;12.24;24.00
7180;BME280;3631;42.152;24.756;2023-03-29T12:51:00;99806.81;;;12.31;23.80
7180;BME280;3631;42.152;24.756;2023-03-29T12:53:49;99801.81;;;12.25;24.23
7180;BME280;3631;42.152;24.756;2023-03-29T12:56:40;99800.88;;;12.28;24.27
7180;BME280;3631;42.152;24.756;2023-03-29T12:59:44;99785.34;;;12.25;23.79
7180;BME280;3631;42.152;24.756;2023-03-29T13:03:17;99805.00;;;12.33;23.60
7180;BME280;3631;42.152;24.756;2023-03-29T13:06:23;99791.09;;;12.34;23.49
7180;BME280;3631;42.152;24.756;2023-03-29T13:15:39;99786.72;;;12.36;24.03
7180;BME280;3631;42.152;24.756;2023-03-29T13:21:52;99798.66;;;12.42;23.41
7180;BME280;3631;42.152;24.756;2023-03-29T13:27:54;99798.94;;;12.61;23.70
7180;BME280;3631;42.152;24.756;2023-03-29T13:30:49;99804.19;;;12.59;23.90
7180;BME280;3631;42.152;24.756;2023-03-29T13:33:57;99815.50;;;12.58;23.92
7180;BME280;3631;42.152;24.756;2023-03-29T13:36:55;99804.25;;;12.58;23.93
7180;BME280;3631;42.152;24.756;2023-03-29T13:39:36;99803.47;;;12.54;22.01
7180;BME280;3631;42.152;24.756;2023-03-29T13:42:37;99792.38;;;12.49;21.02
7180;BME280;3631;42.152;24.756;2023-03-29T13:45:29;99806.03;;;12.56;21.22
7180;BME280;3631;42.152;24.756;2023-03-29T13:48:44;99813.03;;;12.54;21.33
7180;BME280;3631;42.152;24.756;2023-03-29T13:51:57;99812.84;;;12.60;22.49
7180;BME280;3631;42.152;24.756;2023-03-29T13:55:18;99812.78;;;12.63;21.34
7180;BME280;3631;42.152;24.756;2023-03-29T13:58:25;99815.50;;;12.58;20.49
7180;BME280;3631;42.152;24.756;2023-03-29T14:01:36;99816.66;;;12.50;20.55
7180;BME280;3631;42.152;24.756;2023-03-29T14:04:42;99816.03;;;12.42;20.37
7180;BME280;3631;42.152;24.756;2023-03-29T14:07:40;99813.00;;;12.29;20.70
7180;BME280;3631;42.152;24.756;2023-03-29T14:10:32;99825.91;;;12.30;21.00
7180;BME280;3631;42.152;24.756;2023-03-29T14:13:30;99813.94;;;12.26;20.13
7180;BME280;3631;42.152;24.756;2023-03-29T14:16:33;99820.91;;;12.24;19.91
7180;BME280;3631;42.152;24.756;2023-03-29T14:19:47;99830.56;;;12.21;19.42
7180;BME280;3631;42.152;24.756;2023-03-29T14:22:40;99827.91;;;12.22;19.41
7180;BME280;3631;42.152;24.756;2023-03-29T14:25:19;99814.41;;;12.10;19.46
7180;BME280;3631;42.152;24.756;2023-03-29T14:27:54;99810.22;;;12.06;19.50
7180;BME280;3631;42.152;24.756;2023-03-29T14:30:32;99821.69;;;11.98;19.75
7180;BME280;3631;42.152;24.756;2023-03-29T14:33:09;99820.22;;;11.90;20.09
7180;BME280;3631;42.152;24.756;2023-03-29T14:35:57;99812.47;;;11.88;20.89
7180;BME280;3631;42.152;24.756;2023-03-29T14:38:30;99823.69;;;11.90;21.29
7180;BME280;3631;42.152;24.756;2023-03-29T14:41:09;99827.78;;;11.97;21.33
7180;BME280;3631;42.152;24.756;2023-03-29T14:43:50;99829.47;;;12.00;20.76
7180;BME280;3631;42.152;24.756;2023-03-29T14:46:37;99830.22;;;12.04;21.21
7180;BME280;3631;42.152;24.756;2023-03-29T14:49:18;99824.88;;;12.08;22.42
7180;BME280;3631;42.152;24.756;2023-03-29T14:52:06;99831.56;;;12.17;22.48
7180;BME280;3631;42.152;24.756;2023-03-29T14:54:47;99833.31;;;12.16;21.56
7180;BME280;3631;42.152;24.756;2023-03-29T14:57:34;99834.19;;;12.17;19.76
7180;BME280;3631;42.152;24.756;2023-03-29T15:00:20;99830.88;;;12.10;19.34
7180;BME280;3631;42.152;24.756;2023-03-29T15:03:16;99843.91;;;12.10;19.74
7180;BME280;3631;42.152;24.756;2023-03-29T15:06:16;99841.28;;;12.10;20.38
7180;BME280;3631;42.152;24.756;2023-03-29T15:09:23;99843.00;;;12.11;19.71
7180;BME280;3631;42.152;24.756;2023-03-29T15:12:32;99845.47;;;12.16;19.78
7180;BME280;3631;42.152;24.756;2023-03-29T15:15:18;99842.03;;;12.15;19.65
7180;BME280;3631;42.152;24.756;2023-03-29T15:18:20;99850.88;;;12.08;18.89
7180;BME280;3631;42.152;24.756;2023-03-29T15:21:15;99846.84;;;11.98;19.48
7180;BME280;3631;42.152;24.756;2023-03-29T15:24:30;99851.16;;;11.99;19.13
7180;BME280;3631;42.152;24.756;2023-03-29T15:27:23;99851.28;;;11.96;19.40
7180;BME280;3631;42.152;24.756;2023-03-29T15:30:19;99856.72;;;11.87;18.84
7180;BME280;3631;42.152;24.756;2023-03-29T15:33:30;99852.53;;;11.83;19.26
7180;BME280;3631;42.152;24.756;2023-03-29T15:36:13;99866.53;;;11.77;20.30
7180;BME280;3631;42.152;24.756;2023-03-29T15:38:42;99871.78;;;11.74;19.86
7180;BME280;3631;42.152;24.756;2023-03-29T15:41:15;99871.94;;;11.70;19.67
7180;BME280;3631;42.152;24.756;2023-03-29T15:43:52;99869.59;;;11.60;19.21
7180;BME280;3631;42.152;24.756;2023-03-29T15:46:36;99883.47;;;11.59;19.76
7180;BME280;3631;42.152;24.756;2023-03-29T15:49:34;99881.75;;;11.58;19.98
7180;BME280;3631;42.152;24.756;2023-03-29T15:52:22;99884.44;;;11.55;19.58
7180;BME280;3631;42.152;24.756;2023-03-29T15:55:19;99884.63;;;11.49;20.25
7180;BME280;3631;42.152;24.756;2023-03-29T15:58:35;99878.69;;;11.44;20.21
7180;BME280;3631;42.152;24.756;2023-03-29T16:01:36;99887.34;;;11.45;20.48
7180;BME280;3631;42.152;24.756;2023-03-29T16:04:36;99890.97;;;11.39;20.79
7180;BME280;3631;42.152;24.756;2023-03-29T16:07:35;99894.75;;;11.26;20.87
7180;BME280;3631;42.152;24.756;2023-03-29T16:10:22;99896.38;;;11.30;21.22
7180;BME280;3631;42.152;24.756;2023-03-29T16:13:28;99898.28;;;11.23;21.15
7180;BME280;3631;42.152;24.756;2023-03-29T16:16:22;99900.19;;;11.17;20.86
7180;BME280;3631;42.152;24.756;2023-03-29T16:19:19;99904.72;;;11.09;21.66
7180;BME280;3631;42.152;24.756;2023-03-29T16:22:24;99909.16;;;11.05;21.29
7180;BME280;3631;42.152;24.756;2023-03-29T16:25:36;99901.41;;;11.02;21.37
7180;BME280;3631;42.152;24.756;2023-03-29T16:28:39;99910.88;;;11.05;21.21
7180;BME280;3631;42.152;24.756;2023-03-29T16:31:36;99908.41;;;10.99;21.42